createdAt,value
2023-04-27T00:00:34.433Z,502.00
2023-04-27T00:01:34.490Z,502.00
2023-04-27T00:02:34.640Z,503.00
2023-04-27T00:03:34.584Z,501.00
2023-04-27T00:04:34.654Z,499.00
2023-04-27T00:05:34.667Z,498.00
2023-04-27T00:06:34.639Z,501.00
2023-04-27T00:07:34.612Z,503.00
2023-04-27T00:08:34.629Z,500.00
2023-04-27T00:09:34.627Z,499.00
2023-04-27T00:10:34.672Z,496.00
2023-04-27T00:11:34.673Z,495.00
2023-04-27T00:12:34.681Z,495.00
2023-04-27T00:13:34.716Z,494.00
2023-04-27T00:14:34.736Z,493.00
2023-04-27T00:15:34.767Z,493.00
2023-04-27T00:16:34.877Z,492.00
2023-04-27T00:17:34.759Z,492.00
2023-04-27T00:18:34.747Z,494.00
2023-04-27T00:19:34.814Z,496.00
2023-04-27T00:20:34.778Z,497.00
2023-04-27T00:21:34.781Z,498.00
2023-04-27T00:22:34.815Z,497.00
2023-04-27T00:23:34.848Z,495.00
2023-04-27T00:24:34.815Z,496.00
2023-04-27T00:25:34.869Z,496.00
2023-04-27T00:26:34.872Z,495.00
2023-04-27T00:27:34.880Z,494.00
2023-04-27T00:28:34.841Z,498.00
2023-04-27T00:29:34.891Z,497.00
2023-04-27T00:30:34.917Z,498.00
2023-04-27T00:31:34.881Z,496.00
2023-04-27T00:32:34.915Z,496.00
2023-04-27T00:33:34.874Z,495.00
2023-04-27T00:34:34.858Z,495.00
2023-04-27T00:35:34.887Z,496.00
2023-04-27T00:36:34.870Z,495.00
2023-04-27T00:37:34.839Z,496.00
2023-04-27T00:38:35.425Z,498.00
2023-04-27T00:39:34.878Z,498.00
2023-04-27T00:40:34.932Z,498.00
2023-04-27T00:41:34.893Z,496.00
2023-04-27T00:42:34.908Z,493.00
2023-04-27T00:43:34.886Z,492.00
2023-04-27T00:44:34.917Z,493.00
2023-04-27T00:45:34.939Z,494.00
2023-04-27T00:46:34.954Z,494.00
2023-04-27T00:47:35.020Z,496.00
2023-04-27T00:48:34.952Z,496.00
2023-04-27T00:49:34.935Z,497.00
2023-04-27T00:50:34.971Z,495.00
2023-04-27T00:51:34.930Z,496.00
2023-04-27T00:52:34.962Z,496.00
2023-04-27T00:53:34.939Z,498.00
2023-04-27T00:54:34.949Z,498.00
2023-04-27T00:55:34.990Z,498.00
2023-04-27T00:56:34.973Z,498.00
2023-04-27T00:57:35.026Z,498.00
2023-04-27T00:58:35.032Z,500.00
2023-04-27T00:59:34.971Z,500.00
2023-04-27T01:00:35.068Z,499.00
2023-04-27T01:01:35.102Z,501.00
2023-04-27T01:02:35.054Z,499.00
2023-04-27T01:03:35.210Z,500.00
2023-04-27T01:04:35.045Z,501.00
2023-04-27T01:05:34.996Z,501.00
2023-04-27T01:06:34.954Z,500.00
2023-04-27T01:07:34.988Z,501.00
2023-04-27T01:08:35.067Z,501.00
2023-04-27T01:09:34.944Z,501.00
2023-04-27T01:10:34.957Z,502.00
2023-04-27T01:11:34.969Z,503.00
2023-04-27T01:12:34.993Z,504.00
2023-04-27T01:13:35.028Z,505.00
2023-04-27T01:14:35.066Z,504.00
2023-04-27T01:15:34.969Z,503.00
2023-04-27T01:16:35.096Z,502.00
2023-04-27T01:17:35.044Z,503.00
2023-04-27T01:18:34.999Z,503.00
2023-04-27T01:19:34.994Z,503.00
2023-04-27T01:20:34.999Z,502.00
2023-04-27T01:21:35.034Z,501.00
2023-04-27T01:22:35.064Z,502.00
2023-04-27T01:23:35.000Z,504.00
2023-04-27T01:24:35.033Z,503.00
2023-04-27T01:25:35.027Z,502.00
2023-04-27T01:26:34.993Z,501.00
2023-04-27T01:27:34.988Z,499.00
2023-04-27T01:28:34.956Z,500.00
2023-04-27T01:29:34.956Z,499.00
2023-04-27T01:30:35.472Z,501.00
2023-04-27T01:31:35.028Z,503.00
2023-04-27T01:32:34.980Z,503.00
2023-04-27T01:33:34.970Z,503.00
2023-04-27T01:34:34.973Z,503.00
2023-04-27T01:35:34.996Z,501.00
2023-04-27T01:36:34.949Z,500.00
2023-04-27T01:37:34.965Z,499.00
2023-04-27T01:38:34.999Z,501.00
2023-04-27T01:39:34.982Z,502.00
2023-04-27T01:40:34.974Z,504.00
2023-04-27T01:41:34.971Z,502.00
2023-04-27T01:42:34.978Z,499.00
2023-04-27T01:43:34.944Z,498.00
2023-04-27T01:44:35.009Z,497.00
2023-04-27T01:45:34.982Z,496.00
2023-04-27T01:46:35.094Z,499.00
2023-04-27T01:47:35.067Z,498.00
2023-04-27T01:48:35.018Z,497.00
2023-04-27T01:49:35.052Z,497.00
2023-04-27T01:50:35.060Z,497.00
2023-04-27T01:51:35.024Z,498.00
2023-04-27T01:52:35.060Z,497.00
2023-04-27T01:53:35.071Z,498.00
2023-04-27T01:54:35.030Z,499.00
2023-04-27T01:55:35.027Z,499.00
2023-04-27T01:56:35.042Z,498.00
2023-04-27T01:57:35.034Z,497.00
2023-04-27T01:58:35.063Z,498.00
2023-04-27T01:59:35.026Z,499.00
2023-04-27T02:00:35.036Z,499.00
2023-04-27T02:01:35.061Z,500.00
2023-04-27T02:02:35.119Z,497.00
2023-04-27T02:03:35.158Z,497.00
2023-04-27T02:04:35.018Z,499.00
2023-04-27T02:05:35.017Z,499.00
2023-04-27T02:06:35.008Z,500.00
2023-04-27T02:07:35.014Z,499.00
2023-04-27T02:08:34.996Z,499.00
2023-04-27T02:09:34.986Z,499.00
2023-04-27T02:10:35.020Z,499.00
2023-04-27T02:11:34.988Z,498.00
2023-04-27T02:12:34.991Z,499.00
2023-04-27T02:13:34.985Z,499.00
2023-04-27T02:14:34.992Z,500.00
2023-04-27T02:15:35.016Z,500.00
2023-04-27T02:16:35.139Z,499.00
2023-04-27T02:17:35.062Z,501.00
2023-04-27T02:18:35.003Z,500.00
2023-04-27T02:19:34.984Z,501.00
2023-04-27T02:20:35.004Z,499.00
2023-04-27T02:21:35.000Z,499.00
2023-04-27T02:22:34.984Z,498.00
2023-04-27T02:23:34.982Z,498.00
2023-04-27T02:24:34.973Z,498.00
2023-04-27T02:25:35.039Z,496.00
2023-04-27T02:26:34.997Z,496.00
2023-04-27T02:27:35.031Z,495.00
2023-04-27T02:28:34.951Z,495.00
2023-04-27T02:29:34.976Z,496.00
2023-04-27T02:30:35.035Z,496.00
2023-04-27T02:31:35.084Z,495.00
2023-04-27T02:32:34.973Z,494.00
2023-04-27T02:33:34.967Z,495.00
2023-04-27T02:34:34.962Z,494.00
2023-04-27T02:35:34.989Z,496.00
2023-04-27T02:36:34.985Z,495.00
2023-04-27T02:37:35.024Z,493.00
2023-04-27T02:38:34.963Z,492.00
2023-04-27T02:39:35.001Z,492.00
2023-04-27T02:40:34.969Z,492.00
2023-04-27T02:41:34.982Z,492.00
2023-04-27T02:42:34.977Z,493.00
2023-04-27T02:43:34.971Z,493.00
2023-04-27T02:44:34.978Z,494.00
2023-04-27T02:45:34.996Z,492.00
2023-04-27T02:46:35.061Z,492.00
2023-04-27T02:47:35.034Z,491.00
2023-04-27T02:48:34.965Z,492.00
2023-04-27T02:49:36.749Z,493.00
2023-04-27T02:50:34.992Z,494.00
2023-04-27T02:51:34.979Z,495.00
2023-04-27T02:52:34.955Z,495.00
2023-04-27T02:53:34.959Z,494.00
2023-04-27T02:54:34.921Z,495.00
2023-04-27T02:55:34.944Z,496.00
2023-04-27T02:56:34.913Z,496.00
2023-04-27T02:57:34.921Z,496.00
2023-04-27T02:58:34.924Z,496.00
2023-04-27T02:59:34.862Z,496.00
2023-04-27T03:00:34.877Z,496.00
2023-04-27T03:01:34.914Z,495.00
2023-04-27T03:02:35.057Z,496.00
2023-04-27T03:03:35.082Z,495.00
2023-04-27T03:04:34.883Z,494.00
2023-04-27T03:05:34.869Z,495.00
2023-04-27T03:06:34.818Z,496.00
2023-04-27T03:07:34.870Z,496.00
2023-04-27T03:08:34.827Z,496.00
2023-04-27T03:09:34.813Z,498.00
2023-04-27T03:10:34.839Z,497.00
2023-04-27T03:11:36.199Z,497.00
2023-04-27T03:12:34.905Z,496.00
2023-04-27T03:13:34.898Z,495.00
2023-04-27T03:14:34.928Z,494.00
2023-04-27T03:15:34.896Z,496.00
2023-04-27T03:16:34.958Z,496.00
2023-04-27T03:17:35.045Z,495.00
2023-04-27T03:18:34.901Z,496.00
2023-04-27T03:19:34.909Z,495.00
2023-04-27T03:20:34.935Z,496.00
2023-04-27T03:21:35.003Z,497.00
2023-04-27T03:22:34.981Z,496.00
2023-04-27T03:23:35.050Z,495.00
2023-04-27T03:24:35.031Z,496.00
2023-04-27T03:25:34.992Z,497.00
2023-04-27T03:26:35.008Z,499.00
2023-04-27T03:27:34.989Z,502.00
2023-04-27T03:28:35.022Z,501.00
2023-04-27T03:29:35.039Z,501.00
2023-04-27T03:30:35.020Z,500.00
2023-04-27T03:31:35.041Z,500.00
2023-04-27T03:32:35.167Z,499.00
2023-04-27T03:33:35.033Z,500.00
2023-04-27T03:34:35.038Z,499.00
2023-04-27T03:35:35.080Z,500.00
2023-04-27T03:36:35.096Z,502.00
2023-04-27T03:37:35.108Z,501.00
2023-04-27T03:38:35.102Z,501.00
2023-04-27T03:39:35.050Z,499.00
2023-04-27T03:40:35.514Z,501.00
2023-04-27T03:41:35.060Z,502.00
2023-04-27T03:42:35.065Z,503.00
2023-04-27T03:43:35.056Z,505.00
2023-04-27T03:44:35.084Z,503.00
2023-04-27T03:45:35.170Z,502.00
2023-04-27T03:46:35.191Z,503.00
2023-04-27T03:47:35.148Z,503.00
2023-04-27T03:48:35.096Z,501.00
2023-04-27T03:49:35.088Z,501.00
2023-04-27T03:50:35.129Z,501.00
2023-04-27T03:51:35.204Z,500.00
2023-04-27T03:52:35.153Z,502.00
2023-04-27T03:53:35.131Z,502.00
2023-04-27T03:54:35.116Z,502.00
2023-04-27T03:55:35.134Z,500.00
2023-04-27T03:56:35.152Z,500.00
2023-04-27T03:57:35.178Z,500.00
2023-04-27T03:58:35.166Z,501.00
2023-04-27T03:59:35.167Z,500.00
2023-04-27T04:00:35.154Z,501.00
2023-04-27T04:01:35.186Z,502.00
2023-04-27T04:02:35.229Z,501.00
2023-04-27T04:03:35.360Z,501.00
2023-04-27T04:04:35.342Z,499.00
2023-04-27T04:05:35.225Z,500.00
2023-04-27T04:06:35.222Z,500.00
2023-04-27T04:07:35.202Z,498.00
2023-04-27T04:08:35.226Z,500.00
2023-04-27T04:09:35.238Z,502.00
2023-04-27T04:10:35.255Z,504.00
2023-04-27T04:11:35.230Z,506.00
2023-04-27T04:12:35.256Z,506.00
2023-04-27T04:13:35.266Z,507.00
2023-04-27T04:14:35.286Z,506.00
2023-04-27T04:15:35.305Z,503.00
2023-04-27T04:16:35.318Z,502.00
2023-04-27T04:17:35.300Z,501.00
2023-04-27T04:18:35.271Z,501.00
2023-04-27T04:19:35.262Z,504.00
2023-04-27T04:20:35.289Z,503.00
2023-04-27T04:21:35.315Z,503.00
2023-04-27T04:22:35.273Z,502.00
2023-04-27T04:23:35.288Z,501.00
2023-04-27T04:24:35.255Z,500.00
2023-04-27T04:25:35.288Z,502.00
2023-04-27T04:26:35.268Z,503.00
2023-04-27T04:27:35.275Z,503.00
2023-04-27T04:28:36.009Z,504.00
2023-04-27T04:29:35.298Z,504.00
2023-04-27T04:30:35.271Z,505.00
2023-04-27T04:31:35.305Z,507.00
2023-04-27T04:32:35.307Z,505.00
2023-04-27T04:33:35.271Z,506.00
2023-04-27T04:34:35.304Z,506.00
2023-04-27T04:35:35.314Z,506.00
2023-04-27T04:36:35.266Z,504.00
2023-04-27T04:37:35.281Z,505.00
2023-04-27T04:38:35.265Z,506.00
2023-04-27T04:39:35.247Z,507.00
2023-04-27T04:40:35.253Z,510.00
2023-04-27T04:41:35.252Z,509.00
2023-04-27T04:42:35.245Z,508.00
2023-04-27T04:43:35.242Z,509.00
2023-04-27T04:44:35.216Z,510.00
2023-04-27T04:45:35.244Z,512.00
2023-04-27T04:46:35.330Z,512.00
2023-04-27T04:47:35.557Z,510.00
2023-04-27T04:48:35.252Z,512.00
2023-04-27T04:49:35.267Z,510.00
2023-04-27T04:50:35.537Z,510.00
2023-04-27T04:51:35.260Z,509.00
2023-04-27T04:52:35.271Z,508.00
2023-04-27T04:53:35.274Z,510.00
2023-04-27T04:54:35.262Z,511.00
2023-04-27T04:55:35.265Z,512.00
2023-04-27T04:56:35.279Z,512.00
2023-04-27T04:57:35.302Z,511.00
2023-04-27T04:58:35.377Z,511.00
2023-04-27T04:59:35.288Z,512.00
2023-04-27T05:00:35.321Z,513.00
2023-04-27T05:01:35.358Z,514.00
2023-04-27T05:02:35.772Z,515.00
2023-04-27T05:03:35.436Z,516.00
2023-04-27T05:04:35.487Z,515.00
2023-04-27T05:05:35.549Z,518.00
2023-04-27T05:06:35.284Z,520.00
2023-04-27T05:07:35.281Z,520.00
2023-04-27T05:08:35.304Z,520.00
2023-04-27T05:09:35.284Z,521.00
2023-04-27T05:10:35.301Z,521.00
2023-04-27T05:11:35.285Z,521.00
2023-04-27T05:12:35.306Z,521.00
2023-04-27T05:13:35.290Z,518.00
2023-04-27T05:14:35.264Z,518.00
2023-04-27T05:15:35.300Z,519.00
2023-04-27T05:16:35.495Z,520.00
2023-04-27T05:17:35.373Z,522.00
2023-04-27T05:18:35.286Z,524.00
2023-04-27T05:19:35.295Z,522.00
2023-04-27T05:20:36.059Z,523.00
2023-04-27T05:21:35.348Z,525.00
2023-04-27T05:22:35.311Z,527.00
2023-04-27T05:23:35.309Z,529.00
2023-04-27T05:24:35.314Z,530.00
2023-04-27T05:25:35.377Z,531.00
2023-04-27T05:26:35.393Z,534.00
2023-04-27T05:27:35.554Z,536.00
2023-04-27T05:28:35.462Z,537.00
2023-04-27T05:29:35.401Z,539.00
2023-04-27T05:30:35.421Z,539.00
2023-04-27T05:31:36.099Z,541.00
2023-04-27T05:32:38.090Z,544.00
2023-04-27T05:33:35.462Z,553.00
2023-04-27T05:34:35.422Z,784.00
2023-04-27T05:35:36.239Z,793.00
2023-04-27T05:36:35.429Z,794.00
2023-04-27T05:37:35.407Z,814.00
2023-04-27T05:38:35.414Z,823.00
2023-04-27T05:39:35.447Z,857.00
2023-04-27T05:40:35.405Z,861.00
2023-04-27T05:41:35.380Z,847.00
2023-04-27T05:42:35.551Z,848.00
2023-04-27T05:43:35.416Z,850.00
2023-04-27T05:44:36.106Z,862.00
2023-04-27T05:45:35.430Z,872.00
2023-04-27T05:46:37.177Z,871.00
2023-04-27T05:47:35.391Z,849.00
2023-04-27T05:48:35.393Z,801.00
2023-04-27T05:49:35.322Z,801.00
2023-04-27T05:50:35.329Z,818.00
2023-04-27T05:51:38.056Z,828.00
2023-04-27T05:52:37.610Z,823.00
2023-04-27T05:53:35.498Z,769.00
2023-04-27T05:54:37.048Z,760.00
2023-04-27T05:55:35.336Z,756.00
2023-04-27T05:56:35.420Z,756.00
2023-04-27T05:57:35.266Z,752.00
2023-04-27T05:58:35.268Z,747.00
2023-04-27T05:59:38.106Z,743.00
2023-04-27T06:00:35.573Z,740.00
2023-04-27T06:01:35.242Z,741.00
2023-04-27T06:02:35.397Z,894.00
2023-04-27T06:03:35.641Z,753.00
2023-04-27T06:04:35.406Z,743.00
2023-04-27T06:05:35.375Z,741.00
2023-04-27T06:06:35.201Z,739.00
2023-04-27T06:07:35.233Z,737.00
2023-04-27T06:08:35.422Z,736.00
2023-04-27T06:09:35.286Z,738.00
2023-04-27T06:10:35.192Z,737.00
2023-04-27T06:11:35.189Z,740.00
2023-04-27T06:12:37.145Z,742.00
2023-04-27T06:13:35.169Z,747.00
2023-04-27T06:14:35.169Z,750.00
2023-04-27T06:15:35.264Z,748.00
2023-04-27T06:16:35.262Z,745.00
2023-04-27T06:17:35.173Z,747.00
2023-04-27T06:18:35.130Z,751.00
2023-04-27T06:19:35.130Z,753.00
2023-04-27T06:20:35.641Z,750.00
2023-04-27T06:21:35.170Z,753.00
2023-04-27T06:22:35.140Z,753.00
2023-04-27T06:23:35.109Z,757.00
2023-04-27T06:24:35.274Z,758.00
2023-04-27T06:25:35.108Z,759.00
2023-04-27T06:26:35.247Z,761.00
2023-04-27T06:27:35.072Z,768.00
2023-04-27T06:28:38.071Z,774.00
2023-04-27T06:29:35.068Z,781.00
2023-04-27T06:30:36.441Z,784.00
2023-04-27T06:31:35.182Z,786.00
2023-04-27T06:32:35.665Z,785.00
2023-04-27T06:33:35.088Z,787.00
2023-04-27T06:34:35.071Z,787.00
2023-04-27T06:35:35.184Z,790.00
2023-04-27T06:36:35.058Z,937.00
2023-04-27T06:37:35.096Z,1048.00
2023-04-27T06:38:35.067Z,1014.00
2023-04-27T06:39:35.105Z,1206.00
2023-04-27T06:40:35.099Z,1311.00
2023-04-27T06:41:35.467Z,1150.00
2023-04-27T06:42:35.137Z,1021.00
2023-04-27T06:43:35.207Z,1185.00
2023-04-27T06:44:35.309Z,1177.00
2023-04-27T06:45:35.210Z,1154.00
2023-04-27T06:46:35.321Z,1288.00
2023-04-27T06:47:35.177Z,1163.00
2023-04-27T06:48:35.189Z,1131.00
2023-04-27T06:49:35.204Z,1182.00
2023-04-27T06:50:35.623Z,1130.00
2023-04-27T06:51:35.165Z,1130.00
2023-04-27T06:52:35.336Z,1140.00
2023-04-27T06:53:35.189Z,1143.00
2023-04-27T06:54:35.184Z,1134.00
2023-04-27T06:55:35.229Z,1129.00
2023-04-27T06:56:35.194Z,1123.00
2023-04-27T06:57:35.304Z,1108.00
2023-04-27T06:58:35.295Z,1080.00
2023-04-27T06:59:35.257Z,1081.00
2023-04-27T07:00:35.576Z,1085.00
2023-04-27T07:01:35.359Z,1088.00
2023-04-27T07:02:35.381Z,1086.00
2023-04-27T07:03:35.524Z,1076.00
2023-04-27T07:04:35.353Z,975.00
2023-04-27T07:05:35.312Z,965.00
2023-04-27T07:06:35.314Z,952.00
2023-04-27T07:07:35.311Z,953.00
2023-04-27T07:08:35.383Z,933.00
2023-04-27T07:09:35.344Z,900.00
2023-04-27T07:10:35.422Z,882.00
2023-04-27T07:11:35.384Z,889.00
2023-04-27T07:12:35.417Z,884.00
2023-04-27T07:13:35.566Z,879.00
2023-04-27T07:14:35.724Z,871.00
2023-04-27T07:15:35.404Z,864.00
2023-04-27T07:16:35.547Z,857.00
2023-04-27T07:17:35.417Z,852.00
2023-04-27T07:18:36.118Z,856.00
2023-04-27T07:19:35.528Z,854.00
2023-04-27T07:20:35.451Z,853.00
2023-04-27T07:21:35.433Z,858.00
2023-04-27T07:22:35.457Z,862.00
2023-04-27T07:23:35.460Z,867.00
2023-04-27T07:24:36.094Z,870.00
2023-04-27T07:25:35.545Z,873.00
2023-04-27T07:26:35.628Z,869.00
2023-04-27T07:27:35.447Z,870.00
2023-04-27T07:28:35.454Z,867.00
2023-04-27T07:29:35.421Z,855.00
2023-04-27T07:30:35.412Z,858.00
2023-04-27T07:31:35.478Z,1041.00
2023-04-27T07:32:35.443Z,1035.00
2023-04-27T07:33:35.488Z,1032.00
2023-04-27T07:34:48.865Z,1037.00
2023-04-27T07:35:36.456Z,1013.00
2023-04-27T07:36:35.429Z,1011.00
2023-04-27T07:37:35.398Z,1004.00
2023-04-27T07:38:35.571Z,997.00
2023-04-27T07:39:35.403Z,967.00
2023-04-27T07:40:35.432Z,946.00
2023-04-27T07:41:35.613Z,893.00
2023-04-27T07:42:35.348Z,875.00
2023-04-27T07:43:35.369Z,864.00
2023-04-27T07:44:35.374Z,859.00
2023-04-27T07:45:35.371Z,933.00
2023-04-27T07:46:35.571Z,939.00
2023-04-27T07:47:35.424Z,926.00
2023-04-27T07:48:35.632Z,915.00
2023-04-27T07:49:35.351Z,910.00
2023-04-27T07:50:35.341Z,907.00
2023-04-27T07:51:35.611Z,902.00
2023-04-27T07:52:35.324Z,900.00
2023-04-27T07:53:35.297Z,900.00
2023-04-27T07:54:35.282Z,900.00
2023-04-27T07:55:35.275Z,903.00
2023-04-27T07:56:35.295Z,906.00
2023-04-27T07:57:35.253Z,904.00
2023-04-27T07:58:35.355Z,909.00
2023-04-27T07:59:35.262Z,910.00
2023-04-27T08:00:35.261Z,907.00
2023-04-27T08:01:35.261Z,905.00
2023-04-27T08:02:35.428Z,903.00
2023-04-27T08:03:35.933Z,906.00
2023-04-27T08:04:35.731Z,913.00
2023-04-27T08:05:35.605Z,917.00
2023-04-27T08:06:35.835Z,924.00
2023-04-27T08:07:39.558Z,930.00
2023-04-27T08:08:37.121Z,935.00
2023-04-27T08:09:35.206Z,941.00
2023-04-27T08:10:35.214Z,946.00
2023-04-27T08:11:36.088Z,951.00
2023-04-27T08:12:35.154Z,978.00
2023-04-27T08:13:35.169Z,969.00
2023-04-27T08:14:35.154Z,961.00
2023-04-27T08:15:35.138Z,956.00
2023-04-27T08:16:35.189Z,953.00
2023-04-27T08:17:35.167Z,951.00
2023-04-27T08:18:35.094Z,950.00
2023-04-27T08:19:35.128Z,948.00
2023-04-27T08:20:35.198Z,951.00
2023-04-27T08:21:35.097Z,1012.00
2023-04-27T08:22:35.088Z,1030.00
2023-04-27T08:23:35.106Z,1101.00
2023-04-27T08:24:35.092Z,1161.00
2023-04-27T08:25:35.061Z,1263.00
2023-04-27T08:26:35.237Z,1335.00
2023-04-27T08:27:35.054Z,1357.00
2023-04-27T08:28:35.127Z,1365.00
2023-04-27T08:29:35.229Z,1374.00
2023-04-27T08:30:35.124Z,1374.00
2023-04-27T08:31:35.621Z,1364.00
2023-04-27T08:32:35.399Z,1361.00
2023-04-27T08:33:35.218Z,1361.00
2023-04-27T08:34:35.257Z,1356.00
2023-04-27T08:35:35.223Z,1351.00
2023-04-27T08:36:35.190Z,1340.00
2023-04-27T08:37:35.191Z,1319.00
2023-04-27T08:38:35.279Z,1172.00
2023-04-27T08:39:35.214Z,1180.00
2023-04-27T08:40:35.197Z,1063.00
2023-04-27T08:41:35.337Z,1100.00
2023-04-27T08:42:35.240Z,1239.00
2023-04-27T08:43:35.596Z,1272.00
2023-04-27T08:44:35.239Z,1388.00
2023-04-27T08:45:35.243Z,1370.00
2023-04-27T08:46:35.283Z,1348.00
2023-04-27T08:47:43.308Z,1251.00
2023-04-27T08:48:36.278Z,1216.00
2023-04-27T08:49:35.279Z,1219.00
2023-04-27T08:50:35.275Z,1278.00
2023-04-27T08:51:35.294Z,1343.00
2023-04-27T08:52:35.225Z,1348.00
2023-04-27T08:53:35.228Z,1340.00
2023-04-27T08:54:35.201Z,1287.00
2023-04-27T08:55:35.231Z,1262.00
2023-04-27T08:56:35.228Z,1195.00
2023-04-27T08:57:35.184Z,1113.00
2023-04-27T08:58:35.425Z,1074.00
2023-04-27T08:59:35.188Z,1058.00
2023-04-27T09:00:35.168Z,1060.00
2023-04-27T09:01:35.205Z,1068.00
2023-04-27T09:02:35.368Z,1078.00
2023-04-27T09:03:35.305Z,1093.00
2023-04-27T09:04:35.203Z,1088.00
2023-04-27T09:05:35.216Z,1066.00
2023-04-27T09:06:35.434Z,1064.00
2023-04-27T09:07:35.218Z,1068.00
2023-04-27T09:08:35.212Z,1106.00
2023-04-27T09:09:35.240Z,1121.00
2023-04-27T09:10:35.339Z,1137.00
2023-04-27T09:11:35.334Z,1151.00
2023-04-27T09:12:35.353Z,1182.00
2023-04-27T09:13:36.138Z,1199.00
2023-04-27T09:14:35.345Z,1211.00
2023-04-27T09:15:35.379Z,1218.00
2023-04-27T09:16:35.896Z,1221.00
2023-04-27T09:17:35.439Z,1221.00
2023-04-27T09:18:35.504Z,1219.00
2023-04-27T09:19:35.642Z,1208.00
2023-04-27T09:20:35.545Z,1129.00
2023-04-27T09:21:35.589Z,1123.00
2023-04-27T09:22:35.580Z,1122.00
2023-04-27T09:23:35.626Z,1131.00
2023-04-27T09:24:35.647Z,1136.00
2023-04-27T09:25:35.732Z,1135.00
2023-04-27T09:26:35.803Z,1129.00
2023-04-27T09:27:35.731Z,1127.00
2023-04-27T09:28:35.755Z,1130.00
2023-04-27T09:29:35.778Z,1135.00
2023-04-27T09:30:35.849Z,1132.00
2023-04-27T09:31:35.952Z,1133.00
2023-04-27T09:32:35.842Z,990.00
2023-04-27T09:33:35.856Z,1088.00
2023-04-27T09:34:35.864Z,1051.00
2023-04-27T09:35:35.870Z,1050.00
2023-04-27T09:36:35.943Z,1054.00
2023-04-27T09:37:35.907Z,1086.00
2023-04-27T09:38:35.922Z,1138.00
2023-04-27T09:39:35.945Z,1115.00
2023-04-27T09:40:36.183Z,1107.00
2023-04-27T09:41:35.977Z,1104.00
2023-04-27T09:42:36.085Z,1100.00
2023-04-27T09:43:35.996Z,1100.00
2023-04-27T09:44:36.024Z,1238.00
2023-04-27T09:45:36.058Z,1252.00
2023-04-27T09:46:36.228Z,1185.00
2023-04-27T09:47:36.146Z,1223.00
2023-04-27T09:48:36.094Z,1269.00
2023-04-27T09:49:36.162Z,1264.00
2023-04-27T09:50:37.911Z,1251.00
2023-04-27T09:51:36.145Z,1234.00
2023-04-27T09:52:36.091Z,1206.00
2023-04-27T09:53:36.142Z,1218.00
2023-04-27T09:54:36.129Z,1179.00
2023-04-27T09:55:36.138Z,1174.00
2023-04-27T09:56:36.142Z,1168.00
2023-04-27T09:57:36.153Z,1166.00
2023-04-27T09:58:36.147Z,1186.00
2023-04-27T09:59:36.153Z,1072.00
2023-04-27T10:00:36.142Z,1012.00
2023-04-27T10:01:37.506Z,994.00
2023-04-27T10:02:49.983Z,982.00
2023-04-27T10:03:37.237Z,978.00
2023-04-27T10:04:36.351Z,979.00
2023-04-27T10:05:36.128Z,976.00
2023-04-27T10:06:36.110Z,976.00
2023-04-27T10:07:36.136Z,973.00
2023-04-27T10:08:36.061Z,973.00
2023-04-27T10:09:36.094Z,973.00
2023-04-27T10:10:36.127Z,971.00
2023-04-27T10:11:36.095Z,965.00
2023-04-27T10:12:36.061Z,960.00
2023-04-27T10:13:36.045Z,954.00
2023-04-27T10:14:36.093Z,947.00
2023-04-27T10:15:36.164Z,954.00
2023-04-27T10:16:36.262Z,990.00
2023-04-27T10:17:36.300Z,1012.00
2023-04-27T10:18:36.210Z,1029.00
2023-04-27T10:19:36.244Z,968.00
2023-04-27T10:20:36.377Z,927.00
2023-04-27T10:21:36.319Z,914.00
2023-04-27T10:22:36.346Z,911.00
2023-04-27T10:23:36.393Z,909.00
2023-04-27T10:24:36.448Z,908.00
2023-04-27T10:25:36.452Z,909.00
2023-04-27T10:26:37.939Z,910.00
2023-04-27T10:27:36.548Z,978.00
2023-04-27T10:28:36.519Z,962.00
2023-04-27T10:29:36.632Z,1152.00
2023-04-27T10:30:36.584Z,1207.00
2023-04-27T10:31:36.513Z,1201.00
2023-04-27T10:32:36.528Z,1195.00
2023-04-27T10:33:36.463Z,1214.00
2023-04-27T10:34:37.179Z,1194.00
2023-04-27T10:35:36.484Z,1082.00
2023-04-27T10:36:36.442Z,1061.00
2023-04-27T10:37:36.588Z,1046.00
2023-04-27T10:38:37.161Z,1023.00
2023-04-27T10:39:48.071Z,1007.00
2023-04-27T10:40:37.437Z,994.00
2023-04-27T10:41:36.653Z,980.00
2023-04-27T10:42:36.389Z,972.00
2023-04-27T10:43:36.382Z,968.00
2023-04-27T10:44:36.555Z,961.00
2023-04-27T10:45:36.490Z,959.00
2023-04-27T10:46:36.849Z,954.00
2023-04-27T10:47:36.577Z,947.00
2023-04-27T10:48:36.338Z,940.00
2023-04-27T10:49:36.344Z,936.00
2023-04-27T10:50:36.463Z,936.00
2023-04-27T10:51:36.339Z,1036.00
2023-04-27T10:52:36.348Z,942.00
2023-04-27T10:53:36.371Z,944.00
2023-04-27T10:54:36.329Z,945.00
2023-04-27T10:55:36.402Z,939.00
2023-04-27T10:56:36.383Z,922.00
2023-04-27T10:57:36.397Z,911.00
2023-04-27T10:58:48.132Z,902.00
2023-04-27T10:59:37.412Z,898.00
2023-04-27T11:00:36.460Z,897.00
2023-04-27T11:01:36.441Z,900.00
2023-04-27T11:02:36.553Z,907.00
2023-04-27T11:03:36.698Z,909.00
2023-04-27T11:04:36.415Z,911.00
2023-04-27T11:05:36.337Z,910.00
2023-04-27T11:06:36.365Z,919.00
2023-04-27T11:07:36.326Z,915.00
2023-04-27T11:08:36.356Z,907.00
2023-04-27T11:09:36.351Z,901.00
2023-04-27T11:10:36.408Z,893.00
2023-04-27T11:11:36.445Z,885.00
2023-04-27T11:12:36.417Z,970.00
2023-04-27T11:13:36.483Z,976.00
2023-04-27T11:14:36.411Z,971.00
2023-04-27T11:15:36.468Z,960.00
2023-04-27T11:16:36.509Z,978.00
2023-04-27T11:17:36.506Z,1026.00
2023-04-27T11:18:36.671Z,1142.00
2023-04-27T11:19:36.553Z,1293.00
2023-04-27T11:20:36.610Z,1227.00
2023-04-27T11:21:37.194Z,1109.00
2023-04-27T11:22:36.697Z,1079.00
2023-04-27T11:23:36.794Z,1055.00
2023-04-27T11:24:37.168Z,1010.00
2023-04-27T11:25:36.907Z,994.00
2023-04-27T11:26:37.764Z,990.00
2023-04-27T11:27:37.064Z,1003.00
2023-04-27T11:28:37.073Z,1019.00
2023-04-27T11:29:37.691Z,1029.00
2023-04-27T11:30:37.136Z,1049.00
2023-04-27T11:31:37.695Z,1059.00
2023-04-27T11:32:37.240Z,1052.00
2023-04-27T11:33:37.254Z,1047.00
2023-04-27T11:34:37.238Z,1046.00
2023-04-27T11:35:37.256Z,1051.00
2023-04-27T11:36:37.321Z,1053.00
2023-04-27T11:37:37.249Z,1050.00
2023-04-27T11:38:37.310Z,1047.00
2023-04-27T11:39:37.381Z,1048.00
2023-04-27T11:40:37.352Z,1060.00
2023-04-27T11:41:37.467Z,1071.00
2023-04-27T11:42:37.424Z,1016.00
2023-04-27T11:43:37.434Z,971.00
2023-04-27T11:44:37.502Z,881.00
2023-04-27T11:45:37.476Z,892.00
2023-04-27T11:46:37.549Z,774.00
2023-04-27T11:47:37.590Z,757.00
2023-04-27T11:48:37.571Z,746.00
2023-04-27T11:49:37.575Z,686.00
2023-04-27T11:50:37.644Z,683.00
2023-04-27T11:51:37.761Z,703.00
2023-04-27T11:52:37.676Z,701.00
2023-04-27T11:53:37.686Z,706.00
2023-04-27T11:54:37.711Z,708.00
2023-04-27T11:55:37.721Z,709.00
2023-04-27T11:56:37.739Z,694.00
2023-04-27T11:57:37.720Z,693.00
2023-04-27T11:58:37.773Z,708.00
2023-04-27T11:59:37.800Z,694.00
2023-04-27T12:00:37.827Z,711.00
2023-04-27T12:01:38.558Z,691.00
2023-04-27T12:02:37.954Z,689.00
2023-04-27T12:03:38.274Z,693.00
2023-04-27T12:04:38.168Z,690.00
2023-04-27T12:05:37.931Z,690.00
2023-04-27T12:06:38.040Z,668.00
2023-04-27T12:07:38.083Z,619.00
2023-04-27T12:08:38.054Z,626.00
2023-04-27T12:09:38.032Z,663.00
2023-04-27T12:10:38.121Z,677.00
2023-04-27T12:11:38.119Z,694.00
2023-04-27T12:12:38.097Z,705.00
2023-04-27T12:13:38.107Z,732.00
2023-04-27T12:14:38.172Z,747.00
2023-04-27T12:15:38.161Z,746.00
2023-04-27T12:16:38.199Z,753.00
2023-04-27T12:17:38.170Z,767.00
2023-04-27T12:18:38.203Z,869.00
2023-04-27T12:19:38.689Z,883.00
2023-04-27T12:20:38.290Z,1124.00
2023-04-27T12:21:38.284Z,884.00
2023-04-27T12:22:38.337Z,882.00
2023-04-27T12:23:38.318Z,894.00